sensor_id;sensor_type;location;lat;lon;timestamp;pressure;altitude;pressure_sealevel;temperature;humidity
37450;BME280;23309;52.582;13.406;2022-07-06T00:00:29;101527.38;;;25.46;31.83
37450;BME280;23309;52.582;13.406;2022-07-06T00:02:55;101534.75;;;25.46;32.33
37450;BME280;23309;52.582;13.406;2022-07-06T00:05:22;101530.31;;;25.45;32.08
37450;BME280;23309;52.582;13.406;2022-07-06T00:07:48;101529.28;;;25.39;32.16
37450;BME280;23309;52.582;13.406;2022-07-06T00:10:14;101533.72;;;25.40;31.98
37450;BME280;23309;52.582;13.406;2022-07-06T00:12:40;101527.84;;;25.37;32.10
37450;BME280;23309;52.582;13.406;2022-07-06T00:15:09;101521.72;;;25.35;32.04
37450;BME280;23309;52.582;13.406;2022-07-06T00:17:36;101527.19;;;25.35;32.59
37450;BME280;23309;52.582;13.406;2022-07-06T00:20:02;101533.72;;;25.34;32.29
37450;BME280;23309;52.582;13.406;2022-07-06T00:22:28;101527.84;;;25.30;32.38
37450;BME280;23309;52.582;13.406;2022-07-06T00:24:55;101527.19;;;25.35;32.69
37450;BME280;23309;52.582;13.406;2022-07-06T00:27:21;101536.88;;;25.31;32.41
37450;BME280;23309;52.582;13.406;2022-07-06T00:29:47;101531.84;;;25.28;32.08
37450;BME280;23309;52.582;13.406;2022-07-06T00:32:15;101528.25;;;25.27;32.45
37450;BME280;23309;52.582;13.406;2022-07-06T00:34:42;101534.78;;;25.26;32.47
37450;BME280;23309;52.582;13.406;2022-07-06T00:37:08;101542.97;;;25.26;32.82
37450;BME280;23309;52.582;13.406;2022-07-06T00:39:34;101545.47;;;25.21;32.70
37450;BME280;23309;52.582;13.406;2022-07-06T00:42:01;101544.22;;;25.17;32.85
37450;BME280;23309;52.582;13.406;2022-07-06T00:44:27;101542.75;;;25.15;32.90
37450;BME280;23309;52.582;13.406;2022-07-06T00:46:53;101547.56;;;25.13;32.47
37450;BME280;23309;52.582;13.406;2022-07-06T00:49:22;101545.69;;;25.07;32.52
37450;BME280;23309;52.582;13.406;2022-07-06T00:51:48;101542.94;;;25.00;33.11
37450;BME280;23309;52.582;13.406;2022-07-06T00:54:14;101540.22;;;25.00;33.02
37450;BME280;23309;52.582;13.406;2022-07-06T00:56:40;101538.53;;;24.93;32.66
37450;BME280;23309;52.582;13.406;2022-07-06T00:59:06;101552.81;;;24.95;33.17
37450;BME280;23309;52.582;13.406;2022-07-06T01:01:32;101553.47;;;24.90;33.11
37450;BME280;23309;52.582;13.406;2022-07-06T01:03:58;101553.00;;;24.87;33.63
37450;BME280;23309;52.582;13.406;2022-07-06T01:06:27;101546.28;;;24.76;33.39
37450;BME280;23309;52.582;13.406;2022-07-06T01:08:54;101571.72;;;24.77;33.74
37450;BME280;23309;52.582;13.406;2022-07-06T01:11:21;101542.28;;;24.66;33.61
37450;BME280;23309;52.582;13.406;2022-07-06T01:13:48;101557.81;;;24.72;33.75
37450;BME280;23309;52.582;13.406;2022-07-06T01:16:16;101560.56;;;24.72;33.58
37450;BME280;23309;52.582;13.406;2022-07-06T01:18:43;101549.84;;;24.70;33.77
37450;BME280;23309;52.582;13.406;2022-07-06T01:21:14;101552.38;;;24.72;33.90
37450;BME280;23309;52.582;13.406;2022-07-06T01:23:42;101552.16;;;24.67;33.97
37450;BME280;23309;52.582;13.406;2022-07-06T01:26:13;101559.94;;;24.70;33.96
37450;BME280;23309;52.582;13.406;2022-07-06T01:28:40;101544.81;;;24.67;33.96
37450;BME280;23309;52.582;13.406;2022-07-06T01:31:14;101558.69;;;24.79;33.70
37450;BME280;23309;52.582;13.406;2022-07-06T01:33:40;101550.47;;;24.66;33.75
37450;BME280;23309;52.582;13.406;2022-07-06T01:36:07;101556.97;;;24.71;33.52
37450;BME280;23309;52.582;13.406;2022-07-06T01:38:44;101537.03;;;24.84;33.77
37450;BME280;23309;52.582;13.406;2022-07-06T01:41:11;101530.50;;;24.78;34.15
37450;BME280;23309;52.582;13.406;2022-07-06T01:43:37;101528.84;;;24.77;33.56
37450;BME280;23309;52.582;13.406;2022-07-06T01:46:03;101538.91;;;24.77;33.75
37450;BME280;23309;52.582;13.406;2022-07-06T01:48:29;101535.78;;;24.80;34.03
37450;BME280;23309;52.582;13.406;2022-07-06T01:50:55;101532.19;;;24.79;33.95
37450;BME280;23309;52.582;13.406;2022-07-06T01:53:22;101541.88;;;24.88;33.55
37450;BME280;23309;52.582;13.406;2022-07-06T01:55:50;101541.06;;;24.94;33.83
37450;BME280;23309;52.582;13.406;2022-07-06T01:58:16;101543.81;;;25.01;33.86
37450;BME280;23309;52.582;13.406;2022-07-06T02:00:43;101534.34;;;25.03;33.91
37450;BME280;23309;52.582;13.406;2022-07-06T02:03:09;101544.22;;;25.11;33.80
37450;BME280;23309;52.582;13.406;2022-07-06T02:05:35;101536.41;;;25.14;33.86
37450;BME280;23309;52.582;13.406;2022-07-06T02:08:01;101542.31;;;25.18;33.32
37450;BME280;23309;52.582;13.406;2022-07-06T02:10:28;101540.22;;;25.20;33.66
37450;BME280;23309;52.582;13.406;2022-07-06T02:12:56;101556.19;;;25.23;33.19
37450;BME280;23309;52.582;13.406;2022-07-06T02:15:23;101552.66;;;25.29;33.48
37450;BME280;23309;52.582;13.406;2022-07-06T02:17:49;101559.16;;;25.34;33.11
37450;BME280;23309;52.582;13.406;2022-07-06T02:20:15;101568.41;;;25.40;33.27
37450;BME280;23309;52.582;13.406;2022-07-06T02:22:41;101587.56;;;25.33;33.34
37450;BME280;23309;52.582;13.406;2022-07-06T02:25:08;101586.94;;;25.31;33.29
37450;BME280;23309;52.582;13.406;2022-07-06T02:27:34;101590.94;;;25.29;33.83
37450;BME280;23309;52.582;13.406;2022-07-06T02:30:05;101585.44;;;25.09;35.33
37450;BME280;23309;52.582;13.406;2022-07-06T02:32:31;101588.97;;;24.84;36.60
37450;BME280;23309;52.582;13.406;2022-07-06T02:34:57;101588.28;;;24.69;37.46
37450;BME280;23309;52.582;13.406;2022-07-06T02:37:23;101585.28;;;24.57;38.18
37450;BME280;23309;52.582;13.406;2022-07-06T02:39:50;101559.34;;;24.27;39.09
37450;BME280;23309;52.582;13.406;2022-07-06T02:42:16;101583.97;;;24.34;39.10
37450;BME280;23309;52.582;13.406;2022-07-06T02:44:42;101590.41;;;24.26;39.21
37450;BME280;23309;52.582;13.406;2022-07-06T02:47:11;101588.28;;;24.15;39.37
37450;BME280;23309;52.582;13.406;2022-07-06T02:49:37;101592.25;;;24.13;39.51
37450;BME280;23309;52.582;13.406;2022-07-06T02:52:03;101602.94;;;24.08;40.90
37450;BME280;23309;52.582;13.406;2022-07-06T02:54:30;101593.88;;;24.01;41.24
37450;BME280;23309;52.582;13.406;2022-07-06T02:56:56;101602.06;;;24.01;40.98
37450;BME280;23309;52.582;13.406;2022-07-06T02:59:22;101594.69;;;23.95;41.33
37450;BME280;23309;52.582;13.406;2022-07-06T03:01:48;101596.97;;;23.91;41.02
37450;BME280;23309;52.582;13.406;2022-07-06T03:04:17;101595.47;;;23.89;41.21
37450;BME280;23309;52.582;13.406;2022-07-06T03:06:43;101596.97;;;23.91;42.41
37450;BME280;23309;52.582;13.406;2022-07-06T03:09:09;101597.34;;;23.88;41.33
37450;BME280;23309;52.582;13.406;2022-07-06T03:11:35;101603.19;;;23.85;41.55
37450;BME280;23309;52.582;13.406;2022-07-06T03:14:02;101606.56;;;23.87;41.91
37450;BME280;23309;52.582;13.406;2022-07-06T03:16:28;101604.66;;;23.88;42.32
37450;BME280;23309;52.582;13.406;2022-07-06T03:18:54;101603.00;;;23.87;41.35
37450;BME280;23309;52.582;13.406;2022-07-06T03:21:23;101603.84;;;23.87;42.19
37450;BME280;23309;52.582;13.406;2022-07-06T03:23:49;101607.19;;;23.89;41.80
37450;BME280;23309;52.582;13.406;2022-07-06T03:26:15;101602.38;;;23.85;42.22
37450;BME280;23309;52.582;13.406;2022-07-06T03:28:42;101604.84;;;23.80;41.75
37450;BME280;23309;52.582;13.406;2022-07-06T03:31:08;101601.28;;;23.79;42.07
37450;BME280;23309;52.582;13.406;2022-07-06T03:33:34;101606.50;;;23.74;41.14
37450;BME280;23309;52.582;13.406;2022-07-06T03:36:00;101603.56;;;23.76;41.15
37450;BME280;23309;52.582;13.406;2022-07-06T03:38:29;101590.06;;;23.68;41.42
37450;BME280;23309;52.582;13.406;2022-07-06T03:40:55;101593.19;;;23.65;41.70
37450;BME280;23309;52.582;13.406;2022-07-06T03:43:21;101595.09;;;23.64;41.14
37450;BME280;23309;52.582;13.406;2022-07-06T03:45:47;101602.19;;;23.59;40.92
37450;BME280;23309;52.582;13.406;2022-07-06T03:48:13;101592.13;;;23.59;41.10
37450;BME280;23309;52.582;13.406;2022-07-06T03:50:40;101588.53;;;23.59;41.03
37450;BME280;23309;52.582;13.406;2022-07-06T03:53:06;101579.56;;;23.65;41.29
37450;BME280;23309;52.582;13.406;2022-07-06T03:55:35;101594.09;;;23.72;41.98
37450;BME280;23309;52.582;13.406;2022-07-06T03:58:01;101592.00;;;23.74;41.48
37450;BME280;23309;52.582;13.406;2022-07-06T04:00:27;101599.13;;;23.75;40.82
37450;BME280;23309;52.582;13.406;2022-07-06T04:02:53;101591.59;;;23.77;41.42
37450;BME280;23309;52.582;13.406;2022-07-06T04:05:19;101598.94;;;23.76;41.17
37450;BME280;23309;52.582;13.406;2022-07-06T04:07:45;101586.53;;;23.74;40.88
37450;BME280;23309;52.582;13.406;2022-07-06T04:10:12;101601.72;;;23.83;40.37
37450;BME280;23309;52.582;13.406;2022-07-06T04:12:44;101568.63;;;23.65;40.51
37450;BME280;23309;52.582;13.406;2022-07-06T04:15:12;101606.53;;;23.81;40.38
37450;BME280;23309;52.582;13.406;2022-07-06T04:17:38;101606.56;;;23.87;40.25
37450;BME280;23309;52.582;13.406;2022-07-06T04:20:07;101599.47;;;23.93;39.79
37450;BME280;23309;52.582;13.406;2022-07-06T04:22:33;101607.97;;;24.04;40.11
37450;BME280;23309;52.582;13.406;2022-07-06T04:25:03;101611.38;;;24.13;39.88
37450;BME280;23309;52.582;13.406;2022-07-06T04:27:29;101606.38;;;24.23;39.45
37450;BME280;23309;52.582;13.406;2022-07-06T04:29:58;101596.50;;;24.22;38.84
37450;BME280;23309;52.582;13.406;2022-07-06T04:32:24;101595.66;;;24.21;38.64
37450;BME280;23309;52.582;13.406;2022-07-06T04:34:50;101601.78;;;24.23;38.92
37450;BME280;23309;52.582;13.406;2022-07-06T04:37:16;101604.31;;;24.25;38.64
37450;BME280;23309;52.582;13.406;2022-07-06T04:39:42;101605.13;;;24.25;38.95
37450;BME280;23309;52.582;13.406;2022-07-06T04:42:08;101601.59;;;24.31;38.80
37450;BME280;23309;52.582;13.406;2022-07-06T04:44:35;101608.59;;;24.47;38.71
37450;BME280;23309;52.582;13.406;2022-07-06T04:47:04;101601.69;;;24.57;37.90
37450;BME280;23309;52.582;13.406;2022-07-06T04:49:30;101599.22;;;24.69;37.75
37450;BME280;23309;52.582;13.406;2022-07-06T04:51:56;101608.94;;;24.84;37.47
37450;BME280;23309;52.582;13.406;2022-07-06T04:54:23;101610.22;;;24.95;36.96
37450;BME280;23309;52.582;13.406;2022-07-06T04:56:49;101603.09;;;25.07;37.01
37450;BME280;23309;52.582;13.406;2022-07-06T04:59:15;101603.53;;;25.17;37.77
37450;BME280;23309;52.582;13.406;2022-07-06T05:01:42;101596.22;;;25.30;36.44
37450;BME280;23309;52.582;13.406;2022-07-06T05:04:11;101591.97;;;25.41;36.15
37450;BME280;23309;52.582;13.406;2022-07-06T05:06:37;101597.44;;;25.41;36.08
37450;BME280;23309;52.582;13.406;2022-07-06T05:09:03;101596.19;;;25.56;35.95
37450;BME280;23309;52.582;13.406;2022-07-06T05:11:30;101601.66;;;25.63;35.33
37450;BME280;23309;52.582;13.406;2022-07-06T05:13:56;101595.34;;;25.76;35.18
37450;BME280;23309;52.582;13.406;2022-07-06T05:16:22;101602.28;;;25.78;34.99
37450;BME280;23309;52.582;13.406;2022-07-06T05:18:49;101609.41;;;25.86;35.40
37450;BME280;23309;52.582;13.406;2022-07-06T05:21:18;101605.22;;;25.96;35.33
37450;BME280;23309;52.582;13.406;2022-07-06T05:23:44;101614.19;;;26.16;34.24
37450;BME280;23309;52.582;13.406;2022-07-06T05:26:10;101596.44;;;26.32;33.99
37450;BME280;23309;52.582;13.406;2022-07-06T05:28:36;101602.28;;;26.48;33.67
37450;BME280;23309;52.582;13.406;2022-07-06T05:31:02;101604.97;;;26.55;33.81
37450;BME280;23309;52.582;13.406;2022-07-06T05:33:29;101614.22;;;26.73;33.17
37450;BME280;23309;52.582;13.406;2022-07-06T05:35:55;101606.88;;;26.98;33.03
37450;BME280;23309;52.582;13.406;2022-07-06T05:38:23;101613.75;;;27.07;32.92
37450;BME280;23309;52.582;13.406;2022-07-06T05:40:50;101595.53;;;27.26;32.80
37450;BME280;23309;52.582;13.406;2022-07-06T05:43:16;101598.31;;;27.44;32.40
37450;BME280;23309;52.582;13.406;2022-07-06T05:45:42;101589.75;;;27.58;31.40
37450;BME280;23309;52.582;13.406;2022-07-06T05:48:09;101601.06;;;27.68;31.43
37450;BME280;23309;52.582;13.406;2022-07-06T05:50:35;101605.94;;;27.66;30.82
37450;BME280;23309;52.582;13.406;2022-07-06T05:53:03;101604.66;;;27.69;30.95
37450;BME280;23309;52.582;13.406;2022-07-06T05:55:33;101598.81;;;27.83;30.99
37450;BME280;23309;52.582;13.406;2022-07-06T05:57:59;101605.47;;;27.94;31.86
37450;BME280;23309;52.582;13.406;2022-07-06T06:00:27;101598.16;;;28.24;30.82
37450;BME280;23309;52.582;13.406;2022-07-06T06:02:53;101602.50;;;28.49;30.54
37450;BME280;23309;52.582;13.406;2022-07-06T06:05:20;101594.81;;;28.69;29.72
37450;BME280;23309;52.582;13.406;2022-07-06T06:07:47;101600.00;;;28.77;29.95
37450;BME280;23309;52.582;13.406;2022-07-06T06:10:14;101601.47;;;28.91;29.90
37450;BME280;23309;52.582;13.406;2022-07-06T06:12:44;101598.00;;;29.14;29.65
37450;BME280;23309;52.582;13.406;2022-07-06T06:15:12;101594.06;;;29.33;29.23
37450;BME280;23309;52.582;13.406;2022-07-06T06:17:39;101602.88;;;29.64;28.98
37450;BME280;23309;52.582;13.406;2022-07-06T06:20:09;101607.78;;;29.74;28.08
37450;BME280;23309;52.582;13.406;2022-07-06T06:22:46;101615.56;;;29.65;28.39
37450;BME280;23309;52.582;13.406;2022-07-06T06:25:12;101604.38;;;29.37;28.42
37450;BME280;23309;52.582;13.406;2022-07-06T06:27:38;101618.84;;;29.33;28.72
37450;BME280;23309;52.582;13.406;2022-07-06T06:30:10;101611.31;;;29.28;29.05
37450;BME280;23309;52.582;13.406;2022-07-06T06:32:37;101605.34;;;29.43;28.92
37450;BME280;23309;52.582;13.406;2022-07-06T06:35:05;101599.91;;;29.77;28.81
37450;BME280;23309;52.582;13.406;2022-07-06T06:37:31;101596.38;;;30.05;28.49
37450;BME280;23309;52.582;13.406;2022-07-06T06:39:57;101595.31;;;30.17;27.98
37450;BME280;23309;52.582;13.406;2022-07-06T06:42:24;101604.50;;;30.34;27.33
37450;BME280;23309;52.582;13.406;2022-07-06T06:44:50;101595.38;;;30.45;27.39
37450;BME280;23309;52.582;13.406;2022-07-06T06:47:19;101597.03;;;30.46;27.14
37450;BME280;23309;52.582;13.406;2022-07-06T06:49:45;101601.88;;;30.28;27.11
37450;BME280;23309;52.582;13.406;2022-07-06T06:52:11;101607.53;;;29.98;27.85
37450;BME280;23309;52.582;13.406;2022-07-06T06:54:37;101602.00;;;29.98;27.60
37450;BME280;23309;52.582;13.406;2022-07-06T06:57:04;101607.06;;;30.01;28.04
37450;BME280;23309;52.582;13.406;2022-07-06T06:59:30;101608.72;;;30.25;27.84
37450;BME280;23309;52.582;13.406;2022-07-06T07:01:56;101606.88;;;30.42;26.69
37450;BME280;23309;52.582;13.406;2022-07-06T07:04:25;101606.94;;;30.59;26.39
37450;BME280;23309;52.582;13.406;2022-07-06T07:06:51;101600.16;;;30.78;26.55
37450;BME280;23309;52.582;13.406;2022-07-06T07:09:17;101603.75;;;31.06;26.52
37450;BME280;23309;52.582;13.406;2022-07-06T07:11:43;101594.94;;;31.37;25.91
37450;BME280;23309;52.582;13.406;2022-07-06T07:14:10;101609.66;;;31.76;24.08
37450;BME280;23309;52.582;13.406;2022-07-06T07:16:36;101609.81;;;31.69;23.94
37450;BME280;23309;52.582;13.406;2022-07-06T07:19:02;101614.78;;;31.67;23.59
37450;BME280;23309;52.582;13.406;2022-07-06T07:21:31;101618.94;;;31.86;23.02
37450;BME280;23309;52.582;13.406;2022-07-06T07:23:57;101604.34;;;32.08;23.63
37450;BME280;23309;52.582;13.406;2022-07-06T07:26:23;101629.25;;;32.51;22.79
37450;BME280;23309;52.582;13.406;2022-07-06T07:28:49;101619.16;;;32.61;22.25
37450;BME280;23309;52.582;13.406;2022-07-06T07:31:16;101623.78;;;32.77;22.04
37450;BME280;23309;52.582;13.406;2022-07-06T07:33:42;101626.47;;;32.94;22.25
37450;BME280;23309;52.582;13.406;2022-07-06T07:36:08;101626.22;;;32.95;21.60
37450;BME280;23309;52.582;13.406;2022-07-06T07:38:37;101623.97;;;32.92;21.14
37450;BME280;23309;52.582;13.406;2022-07-06T07:41:03;101610.00;;;33.09;20.90
37450;BME280;23309;52.582;13.406;2022-07-06T07:43:29;101618.91;;;33.11;21.20
37450;BME280;23309;52.582;13.406;2022-07-06T07:45:56;101624.66;;;33.04;21.48
37450;BME280;23309;52.582;13.406;2022-07-06T07:48:22;101618.25;;;32.77;21.73
37450;BME280;23309;52.582;13.406;2022-07-06T07:50:48;101620.72;;;32.31;21.65
37450;BME280;23309;52.582;13.406;2022-07-06T07:53:14;101619.06;;;31.75;22.61
37450;BME280;23309;52.582;13.406;2022-07-06T07:55:43;101637.19;;;31.21;23.80
37450;BME280;23309;52.582;13.406;2022-07-06T07:58:09;101626.88;;;30.89;24.26
37450;BME280;23309;52.582;13.406;2022-07-06T08:00:35;101620.97;;;30.57;24.75
37450;BME280;23309;52.582;13.406;2022-07-06T08:03:02;101634.00;;;30.34;25.22
37450;BME280;23309;52.582;13.406;2022-07-06T08:05:28;101635.09;;;29.98;25.61
37450;BME280;23309;52.582;13.406;2022-07-06T08:07:54;101626.59;;;29.77;25.46
37450;BME280;23309;52.582;13.406;2022-07-06T08:10:20;101629.94;;;29.67;25.89
37450;BME280;23309;52.582;13.406;2022-07-06T08:12:49;101624.53;;;29.84;25.82
37450;BME280;23309;52.582;13.406;2022-07-06T08:15:16;101623.38;;;30.14;24.83
37450;BME280;23309;52.582;13.406;2022-07-06T08:17:42;101622.63;;;30.19;24.70
37450;BME280;23309;52.582;13.406;2022-07-06T08:20:10;101631.75;;;29.96;24.85
37450;BME280;23309;52.582;13.406;2022-07-06T08:22:36;101629.00;;;29.85;25.41
37450;BME280;23309;52.582;13.406;2022-07-06T08:25:04;101628.50;;;29.76;25.26
37450;BME280;23309;52.582;13.406;2022-07-06T08:27:30;101626.94;;;29.69;25.60
37450;BME280;23309;52.582;13.406;2022-07-06T08:29:59;101625.28;;;29.91;25.30
37450;BME280;23309;52.582;13.406;2022-07-06T08:32:25;101632.31;;;30.33;24.76
37450;BME280;23309;52.582;13.406;2022-07-06T08:34:51;101622.09;;;30.45;23.63
37450;BME280;23309;52.582;13.406;2022-07-06T08:37:17;101622.50;;;30.25;24.04
37450;BME280;23309;52.582;13.406;2022-07-06T08:39:43;101632.22;;;30.16;23.52
37450;BME280;23309;52.582;13.406;2022-07-06T08:42:10;101635.31;;;29.85;23.77
37450;BME280;23309;52.582;13.406;2022-07-06T08:44:37;101626.53;;;29.42;24.63
37450;BME280;23309;52.582;13.406;2022-07-06T08:47:06;101638.19;;;29.15;25.26
37450;BME280;23309;52.582;13.406;2022-07-06T08:49:33;101640.31;;;29.01;25.23
37450;BME280;23309;52.582;13.406;2022-07-06T08:52:00;101632.69;;;28.85;25.10
37450;BME280;23309;52.582;13.406;2022-07-06T08:54:28;101635.66;;;28.84;25.60
37450;BME280;23309;52.582;13.406;2022-07-06T08:56:54;101642.09;;;28.78;25.62
37450;BME280;23309;52.582;13.406;2022-07-06T08:59:21;101646.00;;;28.70;25.90
37450;BME280;23309;52.582;13.406;2022-07-06T09:01:47;101644.22;;;28.76;25.77
37450;BME280;23309;52.582;13.406;2022-07-06T09:04:18;101629.16;;;28.78;25.06
37450;BME280;23309;52.582;13.406;2022-07-06T09:06:47;101637.41;;;28.78;24.95
37450;BME280;23309;52.582;13.406;2022-07-06T09:09:19;101623.56;;;28.85;25.02
37450;BME280;23309;52.582;13.406;2022-07-06T09:11:46;101628.81;;;29.04;24.52
37450;BME280;23309;52.582;13.406;2022-07-06T09:14:12;101641.75;;;29.04;24.78
37450;BME280;23309;52.582;13.406;2022-07-06T09:16:39;101643.38;;;29.23;23.52
37450;BME280;23309;52.582;13.406;2022-07-06T09:19:06;101647.97;;;29.52;23.03
37450;BME280;23309;52.582;13.406;2022-07-06T09:21:35;101628.38;;;29.83;23.04
37450;BME280;23309;52.582;13.406;2022-07-06T09:24:05;101640.13;;;29.90;22.27
37450;BME280;23309;52.582;13.406;2022-07-06T09:26:32;101640.94;;;29.90;21.88
37450;BME280;23309;52.582;13.406;2022-07-06T09:28:58;101634.50;;;29.85;22.02
37450;BME280;23309;52.582;13.406;2022-07-06T09:31:25;101632.56;;;29.85;22.11
37450;BME280;23309;52.582;13.406;2022-07-06T09:33:56;101619.66;;;29.63;22.09
37450;BME280;23309;52.582;13.406;2022-07-06T09:36:50;101634.41;;;29.39;22.09
37450;BME280;23309;52.582;13.406;2022-07-06T09:39:27;101650.78;;;29.22;22.79
37450;BME280;23309;52.582;13.406;2022-07-06T09:41:55;101649.16;;;29.03;23.69
37450;BME280;23309;52.582;13.406;2022-07-06T09:44:24;101643.88;;;29.02;23.49
37450;BME280;23309;52.582;13.406;2022-07-06T09:46:51;101652.63;;;28.99;23.60
37450;BME280;23309;52.582;13.406;2022-07-06T09:49:19;101648.25;;;28.91;23.91
37450;BME280;23309;52.582;13.406;2022-07-06T09:51:45;101653.75;;;28.91;23.60
37450;BME280;23309;52.582;13.406;2022-07-06T09:54:15;101655.38;;;28.99;24.17
37450;BME280;23309;52.582;13.406;2022-07-06T09:56:43;101655.56;;;28.97;24.27
37450;BME280;23309;52.582;13.406;2022-07-06T09:59:10;101657.41;;;29.03;24.15
37450;BME280;23309;52.582;13.406;2022-07-06T10:01:38;101660.03;;;28.98;24.19
37450;BME280;23309;52.582;13.406;2022-07-06T10:04:05;101652.91;;;28.91;24.41
37450;BME280;23309;52.582;13.406;2022-07-06T10:06:32;101660.63;;;28.82;24.91
37450;BME280;23309;52.582;13.406;2022-07-06T10:08:59;101660.41;;;28.84;25.19
37450;BME280;23309;52.582;13.406;2022-07-06T10:11:29;101662.88;;;28.74;25.41
37450;BME280;23309;52.582;13.406;2022-07-06T10:13:57;101665.25;;;28.70;25.28
37450;BME280;23309;52.582;13.406;2022-07-06T10:16:24;101664.19;;;28.53;25.81
37450;BME280;23309;52.582;13.406;2022-07-06T10:18:52;101646.84;;;28.35;26.18
37450;BME280;23309;52.582;13.406;2022-07-06T10:21:19;101661.22;;;28.37;26.24
37450;BME280;23309;52.582;13.406;2022-07-06T10:23:46;101664.41;;;28.34;26.51
37450;BME280;23309;52.582;13.406;2022-07-06T10:26:14;101660.22;;;28.49;26.33
37450;BME280;23309;52.582;13.406;2022-07-06T10:28:45;101663.31;;;28.71;25.94
37450;BME280;23309;52.582;13.406;2022-07-06T10:31:11;101672.94;;;28.80;25.39
37450;BME280;23309;52.582;13.406;2022-07-06T10:33:38;101671.31;;;28.90;24.83
37450;BME280;23309;52.582;13.406;2022-07-06T10:36:06;101655.53;;;28.86;24.45
37450;BME280;23309;52.582;13.406;2022-07-06T10:38:34;101646.09;;;28.93;24.12
37450;BME280;23309;52.582;13.406;2022-07-06T10:41:03;101635.44;;;29.15;24.51
37450;BME280;23309;52.582;13.406;2022-07-06T10:43:37;101650.63;;;29.58;24.14
37450;BME280;23309;52.582;13.406;2022-07-06T10:46:11;101639.88;;;30.03;23.73
37450;BME280;23309;52.582;13.406;2022-07-06T10:48:41;101642.16;;;30.17;23.13
37450;BME280;23309;52.582;13.406;2022-07-06T10:51:08;101643.25;;;30.56;23.18
37450;BME280;23309;52.582;13.406;2022-07-06T10:53:37;101644.16;;;31.12;22.59
37450;BME280;23309;52.582;13.406;2022-07-06T10:56:06;101641.13;;;31.42;22.10
37450;BME280;23309;52.582;13.406;2022-07-06T10:58:48;101643.44;;;31.78;22.10
37450;BME280;23309;52.582;13.406;2022-07-06T11:01:18;101632.78;;;31.86;20.84
37450;BME280;23309;52.582;13.406;2022-07-06T11:03:46;101634.38;;;31.82;20.75
37450;BME280;23309;52.582;13.406;2022-07-06T11:06:16;101630.75;;;31.98;20.55
37450;BME280;23309;52.582;13.406;2022-07-06T11:08:54;101633.22;;;32.17;20.34
37450;BME280;23309;52.582;13.406;2022-07-06T11:11:23;101641.44;;;32.12;20.65
37450;BME280;23309;52.582;13.406;2022-07-06T11:13:53;101646.44;;;32.14;20.63
37450;BME280;23309;52.582;13.406;2022-07-06T11:16:24;101644.31;;;32.00;20.66
37450;BME280;23309;52.582;13.406;2022-07-06T11:19:01;101656.28;;;31.72;21.22
37450;BME280;23309;52.582;13.406;2022-07-06T11:21:43;101645.31;;;31.28;21.90
37450;BME280;23309;52.582;13.406;2022-07-06T11:24:12;101649.59;;;30.79;22.74
37450;BME280;23309;52.582;13.406;2022-07-06T11:26:39;101642.94;;;30.52;22.51
37450;BME280;23309;52.582;13.406;2022-07-06T11:29:09;101640.22;;;30.29;23.15
37450;BME280;23309;52.582;13.406;2022-07-06T11:31:40;101646.34;;;30.20;23.40
37450;BME280;23309;52.582;13.406;2022-07-06T11:34:08;101642.88;;;30.24;23.17
37450;BME280;23309;52.582;13.406;2022-07-06T11:36:35;101648.28;;;30.19;23.40
37450;BME280;23309;52.582;13.406;2022-07-06T11:39:02;101640.59;;;30.21;23.60
37450;BME280;23309;52.582;13.406;2022-07-06T11:41:28;101648.28;;;30.19;23.36
37450;BME280;23309;52.582;13.406;2022-07-06T11:43:54;101634.97;;;30.16;23.80
37450;BME280;23309;52.582;13.406;2022-07-06T11:46:26;101640.84;;;30.31;23.89
37450;BME280;23309;52.582;13.406;2022-07-06T11:48:58;101645.69;;;30.52;23.73
37450;BME280;23309;52.582;13.406;2022-07-06T11:51:27;101643.03;;;30.69;23.16
37450;BME280;23309;52.582;13.406;2022-07-06T11:53:55;101637.22;;;30.82;23.27
37450;BME280;23309;52.582;13.406;2022-07-06T11:56:22;101633.47;;;31.16;21.89
37450;BME280;23309;52.582;13.406;2022-07-06T11:58:49;101622.47;;;31.49;22.10
37450;BME280;23309;52.582;13.406;2022-07-06T12:01:16;101628.63;;;32.05;21.41
37450;BME280;23309;52.582;13.406;2022-07-06T12:03:42;101634.19;;;32.27;21.19
37450;BME280;23309;52.582;13.406;2022-07-06T12:06:18;101618.78;;;32.31;21.12
37450;BME280;23309;52.582;13.406;2022-07-06T12:08:48;101617.25;;;32.02;20.89
37450;BME280;23309;52.582;13.406;2022-07-06T12:11:20;101631.25;;;31.62;21.47
37450;BME280;23309;52.582;13.406;2022-07-06T12:13:47;101619.69;;;31.32;21.68
37450;BME280;23309;52.582;13.406;2022-07-06T12:16:15;101622.13;;;31.29;22.41
37450;BME280;23309;52.582;13.406;2022-07-06T12:18:42;101629.50;;;31.40;22.45
37450;BME280;23309;52.582;13.406;2022-07-06T12:21:10;101621.72;;;31.37;22.54
37450;BME280;23309;52.582;13.406;2022-07-06T12:23:48;101610.25;;;31.28;22.22
37450;BME280;23309;52.582;13.406;2022-07-06T12:26:18;101620.03;;;31.36;21.94
37450;BME280;23309;52.582;13.406;2022-07-06T12:28:45;101609.59;;;31.54;21.21
37450;BME280;23309;52.582;13.406;2022-07-06T12:31:30;101619.97;;;31.64;20.98
37450;BME280;23309;52.582;13.406;2022-07-06T12:33:57;101611.81;;;31.74;21.05
37450;BME280;23309;52.582;13.406;2022-07-06T12:36:23;101619.16;;;32.01;21.08
37450;BME280;23309;52.582;13.406;2022-07-06T12:38:52;101614.41;;;32.35;20.75
37450;BME280;23309;52.582;13.406;2022-07-06T12:41:27;101605.72;;;32.70;20.60